﻿<?xml version="1.0" encoding="utf-8"?><gpx creator="Garmin Desktop App" version="1.1" xsi:schemaLocation="http://www.topografix.com/GPX/1/1 http://www.topografix.com/GPX/1/1/gpx.xsd http://www.garmin.com/xmlschemas/WaypointExtension/v1 http://www8.garmin.com/xmlschemas/WaypointExtensionv1.xsd http://www.garmin.com/xmlschemas/TrackPointExtension/v1 http://www.garmin.com/xmlschemas/TrackPointExtensionv1.xsd http://www.garmin.com/xmlschemas/GpxExtensions/v3 http://www8.garmin.com/xmlschemas/GpxExtensionsv3.xsd http://www.garmin.com/xmlschemas/ActivityExtension/v1 http://www8.garmin.com/xmlschemas/ActivityExtensionv1.xsd http://www.garmin.com/xmlschemas/AdventuresExtensions/v1 http://www8.garmin.com/xmlschemas/AdventuresExtensionv1.xsd http://www.garmin.com/xmlschemas/PressureExtension/v1 http://www.garmin.com/xmlschemas/PressureExtensionv1.xsd http://www.garmin.com/xmlschemas/TripExtensions/v1 http://www.garmin.com/xmlschemas/TripExtensionsv1.xsd http://www.garmin.com/xmlschemas/TripMetaDataExtensions/v1 http://www.garmin.com/xmlschemas/TripMetaDataExtensionsv1.xsd http://www.garmin.com/xmlschemas/ViaPointTransportationModeExtensions/v1 http://www.garmin.com/xmlschemas/ViaPointTransportationModeExtensionsv1.xsd http://www.garmin.com/xmlschemas/CreationTimeExtension/v1 http://www.garmin.com/xmlschemas/CreationTimeExtensionsv1.xsd http://www.garmin.com/xmlschemas/AccelerationExtension/v1 http://www.garmin.com/xmlschemas/AccelerationExtensionv1.xsd http://www.garmin.com/xmlschemas/PowerExtension/v1 http://www.garmin.com/xmlschemas/PowerExtensionv1.xsd http://www.garmin.com/xmlschemas/VideoExtension/v1 http://www.garmin.com/xmlschemas/VideoExtensionv1.xsd" xmlns="http://www.topografix.com/GPX/1/1" xmlns:xsi="http://www.w3.org/2001/XMLSchema-instance" xmlns:wptx1="http://www.garmin.com/xmlschemas/WaypointExtension/v1" xmlns:gpxtrx="http://www.garmin.com/xmlschemas/GpxExtensions/v3" xmlns:gpxtpx="http://www.garmin.com/xmlschemas/TrackPointExtension/v1" xmlns:gpxx="http://www.garmin.com/xmlschemas/GpxExtensions/v3" xmlns:trp="http://www.garmin.com/xmlschemas/TripExtensions/v1" xmlns:adv="http://www.garmin.com/xmlschemas/AdventuresExtensions/v1" xmlns:prs="http://www.garmin.com/xmlschemas/PressureExtension/v1" xmlns:tmd="http://www.garmin.com/xmlschemas/TripMetaDataExtensions/v1" xmlns:vptm="http://www.garmin.com/xmlschemas/ViaPointTransportationModeExtensions/v1" xmlns:ctx="http://www.garmin.com/xmlschemas/CreationTimeExtension/v1" xmlns:gpxacc="http://www.garmin.com/xmlschemas/AccelerationExtension/v1" xmlns:gpxpx="http://www.garmin.com/xmlschemas/PowerExtension/v1" xmlns:vidx1="http://www.garmin.com/xmlschemas/VideoExtension/v1">

  <metadata>
    <link href="http://www.garmin.com">
      <text>Garmin International</text>
    </link>
    <time>2021-01-20T14:51:55Z</time>
    <bounds maxlat="46.535199964419007" maxlon="8.668154971674085" minlat="46.522902958095074" minlon="8.639273028820753" />
  </metadata>

  <trk>
    <name>capanna-foisc</name>
    <desc>andata.82</desc>
    <extensions>
      <gpxx:TrackExtension>
        <gpxx:DisplayColor>Yellow</gpxx:DisplayColor>
      </gpxx:TrackExtension>
    </extensions>
    <trkseg>
      <trkpt lat="46.522968001663685" lon="8.649821989238262">
        <ele>1381.9936520000001</ele>
        <time>2011-01-15T07:23:47Z</time>
      </trkpt>
      <trkpt lat="46.522902958095074" lon="8.6498580314219">
        <ele>1386.992432</ele>
        <time>2011-01-15T07:27:11Z</time>
      </trkpt>
      <trkpt lat="46.522977976128459" lon="8.649917040020227">
        <ele>1387.998169</ele>
        <time>2011-01-15T07:28:37Z</time>
      </trkpt>
      <trkpt lat="46.523072021082044" lon="8.649940006434917">
        <ele>1390.009888</ele>
        <time>2011-01-15T07:29:11Z</time>
      </trkpt>
      <trkpt lat="46.523191966116428" lon="8.649972025305033">
        <ele>1396.0145259999999</ele>
        <time>2011-01-15T07:29:43Z</time>
      </trkpt>
      <trkpt lat="46.523330016061664" lon="8.649862976744771">
        <ele>1397.9957280000001</ele>
        <time>2011-01-15T07:30:17Z</time>
      </trkpt>
      <trkpt lat="46.52345197275281" lon="8.649892983958125">
        <ele>1401.9886469999999</ele>
        <time>2011-01-15T07:30:50Z</time>
      </trkpt>
      <trkpt lat="46.523511987179518" lon="8.64981503225863">
        <ele>1405.0061040000001</ele>
        <time>2011-01-15T07:32:11Z</time>
      </trkpt>
      <trkpt lat="46.523592034354806" lon="8.649462992325425">
        <ele>1408.9990230000001</ele>
        <time>2011-01-15T07:32:43Z</time>
      </trkpt>
      <trkpt lat="46.523718014359474" lon="8.649152023717761">
        <ele>1410.0047609999999</ele>
        <time>2011-01-15T07:33:17Z</time>
      </trkpt>
      <trkpt lat="46.523835025727749" lon="8.648820016533136">
        <ele>1412.9918210000001</ele>
        <time>2011-01-15T07:33:49Z</time>
      </trkpt>
      <trkpt lat="46.523941978812218" lon="8.648503012955189">
        <ele>1416.009399</ele>
        <time>2011-01-15T07:34:23Z</time>
      </trkpt>
      <trkpt lat="46.524026971310377" lon="8.648100011050701">
        <ele>1417.015259</ele>
        <time>2011-01-15T07:34:55Z</time>
      </trkpt>
      <trkpt lat="46.524168038740754" lon="8.647770015522838">
        <ele>1417.990601</ele>
        <time>2011-01-15T07:35:29Z</time>
      </trkpt>
      <trkpt lat="46.524252025410533" lon="8.647513026371598">
        <ele>1420.002197</ele>
        <time>2011-01-15T07:36:01Z</time>
      </trkpt>
      <trkpt lat="46.524422010406852" lon="8.647172972559929">
        <ele>1422.0139160000001</ele>
        <time>2011-01-15T07:36:35Z</time>
      </trkpt>
      <trkpt lat="46.524622002616525" lon="8.646795032545924">
        <ele>1429.9997559999999</ele>
        <time>2011-01-15T07:37:08Z</time>
      </trkpt>
      <trkpt lat="46.524853007867932" lon="8.646450033411384">
        <ele>1433.9926760000001</ele>
        <time>2011-01-15T07:37:40Z</time>
      </trkpt>
      <trkpt lat="46.524957027286291" lon="8.646085001528263">
        <ele>1436.00415</ele>
        <time>2011-01-15T07:38:16Z</time>
      </trkpt>
      <trkpt lat="46.525062974542379" lon="8.645655009895563">
        <ele>1438.9913329999999</ele>
        <time>2011-01-15T07:38:50Z</time>
      </trkpt>
      <trkpt lat="46.525103040039539" lon="8.645208002999425">
        <ele>1443.98999</ele>
        <time>2011-01-15T07:39:23Z</time>
      </trkpt>
      <trkpt lat="46.525073032826185" lon="8.644967023283243">
        <ele>1452.006226</ele>
        <time>2011-01-15T07:39:55Z</time>
      </trkpt>
      <trkpt lat="46.525092981755733" lon="8.644497971981764">
        <ele>1449.994629</ele>
        <time>2011-01-15T07:40:27Z</time>
      </trkpt>
      <trkpt lat="46.525257015600801" lon="8.644520016387105">
        <ele>1452.006226</ele>
        <time>2011-01-15T07:41:01Z</time>
      </trkpt>
      <trkpt lat="46.525258021429181" lon="8.644987978041172">
        <ele>1453.987427</ele>
        <time>2011-01-15T07:41:33Z</time>
      </trkpt>
      <trkpt lat="46.525288028642535" lon="8.644877001643181">
        <ele>1451.000366</ele>
        <time>2011-01-15T07:45:07Z</time>
      </trkpt>
      <trkpt lat="46.525415014475584" lon="8.644499983638525">
        <ele>1457.005005</ele>
        <time>2011-01-15T07:45:39Z</time>
      </trkpt>
      <trkpt lat="46.52551501058042" lon="8.644107962027192">
        <ele>1463.0095209999999</ele>
        <time>2011-01-15T07:46:13Z</time>
      </trkpt>
      <trkpt lat="46.525584999471903" lon="8.643709989264607">
        <ele>1467.0024410000001</ele>
        <time>2011-01-15T07:46:45Z</time>
      </trkpt>
      <trkpt lat="46.52570703998208" lon="8.643491975963116">
        <ele>1473.0070800000001</ele>
        <time>2011-01-15T07:47:19Z</time>
      </trkpt>
      <trkpt lat="46.525696981698275" lon="8.643911993131042">
        <ele>1476.9997559999999</ele>
        <time>2011-01-15T07:47:51Z</time>
      </trkpt>
      <trkpt lat="46.525703016668558" lon="8.644271995872259">
        <ele>1484.0101320000001</ele>
        <time>2011-01-15T07:48:25Z</time>
      </trkpt>
      <trkpt lat="46.52564300224185" lon="8.644641973078251">
        <ele>1493.001831</ele>
        <time>2011-01-15T07:48:58Z</time>
      </trkpt>
      <trkpt lat="46.525664962828159" lon="8.644907008856535">
        <ele>1499.0063479999999</ele>
        <time>2011-01-15T07:49:30Z</time>
      </trkpt>
      <trkpt lat="46.525741992518306" lon="8.645276986062527">
        <ele>1500.012207</ele>
        <time>2011-01-15T07:50:04Z</time>
      </trkpt>
      <trkpt lat="46.525811981409788" lon="8.645779984071851">
        <ele>1498.0006100000001</ele>
        <time>2011-01-15T07:50:36Z</time>
      </trkpt>
      <trkpt lat="46.525760013610125" lon="8.646293040364981">
        <ele>1498.0006100000001</ele>
        <time>2011-01-15T07:51:10Z</time>
      </trkpt>
      <trkpt lat="46.525621963664889" lon="8.646777011454105">
        <ele>1502.999268</ele>
        <time>2011-01-15T07:51:42Z</time>
      </trkpt>
      <trkpt lat="46.525469999760389" lon="8.647198034450412">
        <ele>1505.010986</ele>
        <time>2011-01-15T07:52:16Z</time>
      </trkpt>
      <trkpt lat="46.525645013898611" lon="8.647031988948584">
        <ele>1507.998047</ele>
        <time>2011-01-15T07:52:48Z</time>
      </trkpt>
      <trkpt lat="46.525908038020134" lon="8.646782962605357">
        <ele>1510.0097659999999</ele>
        <time>2011-01-15T07:53:22Z</time>
      </trkpt>
      <trkpt lat="46.5261169988662" lon="8.646520022302866">
        <ele>1521.013062</ele>
        <time>2011-01-15T07:53:55Z</time>
      </trkpt>
      <trkpt lat="46.526256976649165" lon="8.646151972934604">
        <ele>1521.013062</ele>
        <time>2011-01-15T07:54:27Z</time>
      </trkpt>
      <trkpt lat="46.526267034932971" lon="8.646039990708232">
        <ele>1521.013062</ele>
        <time>2011-01-15T07:55:01Z</time>
      </trkpt>
      <trkpt lat="46.526335012167692" lon="8.645919961854816">
        <ele>1511.990967</ele>
        <time>2011-01-15T07:55:33Z</time>
      </trkpt>
      <trkpt lat="46.526389997452497" lon="8.645542021840811">
        <ele>1500.9875489999999</ele>
        <time>2011-01-15T07:56:07Z</time>
      </trkpt>
      <trkpt lat="46.526402989402413" lon="8.645131979137659">
        <ele>1495.0135499999999</ele>
        <time>2011-01-15T07:56:39Z</time>
      </trkpt>
      <trkpt lat="46.526344986632466" lon="8.644861998036504">
        <ele>1494.0076899999999</ele>
        <time>2011-01-15T07:57:13Z</time>
      </trkpt>
      <trkpt lat="46.52635202743113" lon="8.644614983350039">
        <ele>1496.994751</ele>
        <time>2011-01-15T07:57:45Z</time>
      </trkpt>
      <trkpt lat="46.526340041309595" lon="8.644512975588441">
        <ele>1506.9921879999999</ele>
        <time>2011-01-15T07:59:55Z</time>
      </trkpt>
      <trkpt lat="46.526317996904254" lon="8.64425296895206">
        <ele>1526.0117190000001</ele>
        <time>2011-01-15T08:00:27Z</time>
      </trkpt>
      <trkpt lat="46.526322020217776" lon="8.643877962604165">
        <ele>1538.996216</ele>
        <time>2011-01-15T08:01:01Z</time>
      </trkpt>
      <trkpt lat="46.526333000510931" lon="8.643513014540076">
        <ele>1546.006592</ele>
        <time>2011-01-15T08:01:34Z</time>
      </trkpt>
      <trkpt lat="46.526356972754002" lon="8.643128033727408">
        <ele>1553.9923100000001</ele>
        <time>2011-01-15T08:02:06Z</time>
      </trkpt>
      <trkpt lat="46.526457974687219" lon="8.642831984907389">
        <ele>1561.002686</ele>
        <time>2011-01-15T08:02:40Z</time>
      </trkpt>
      <trkpt lat="46.526601975783706" lon="8.642612965777516">
        <ele>1571.0002440000001</ele>
        <time>2011-01-15T08:03:12Z</time>
      </trkpt>
      <trkpt lat="46.526770032942295" lon="8.642527973279357">
        <ele>1573.011841</ele>
        <time>2011-01-15T08:03:46Z</time>
      </trkpt>
      <trkpt lat="46.526844967156649" lon="8.64264196716249">
        <ele>1578.01062</ele>
        <time>2011-01-15T08:04:18Z</time>
      </trkpt>
      <trkpt lat="46.526785036548972" lon="8.642795020714402">
        <ele>1578.9858400000001</ele>
        <time>2011-01-15T08:04:52Z</time>
      </trkpt>
      <trkpt lat="46.526862988248467" lon="8.642804995179176">
        <ele>1584.9904790000001</ele>
        <time>2011-01-15T08:05:24Z</time>
      </trkpt>
      <trkpt lat="46.527089970186353" lon="8.642765013501048">
        <ele>1590.994995</ele>
        <time>2011-01-15T08:05:58Z</time>
      </trkpt>
      <trkpt lat="46.527134981006384" lon="8.642663005739451">
        <ele>1588.008057</ele>
        <time>2011-01-15T08:08:43Z</time>
      </trkpt>
      <trkpt lat="46.527182003483176" lon="8.642392018809915">
        <ele>1594.012573</ele>
        <time>2011-01-15T08:09:14Z</time>
      </trkpt>
      <trkpt lat="46.527272025123239" lon="8.642030004411936">
        <ele>1598.005371</ele>
        <time>2011-01-15T08:09:46Z</time>
      </trkpt>
      <trkpt lat="46.527455002069473" lon="8.641596995294094">
        <ele>1603.0042719999999</ele>
        <time>2011-01-15T08:10:20Z</time>
      </trkpt>
      <trkpt lat="46.527681984007359" lon="8.641202040016651">
        <ele>1613.001587</ele>
        <time>2011-01-15T08:10:53Z</time>
      </trkpt>
      <trkpt lat="46.527847023680806" lon="8.640717985108495">
        <ele>1608.0029300000001</ele>
        <time>2011-01-15T08:11:25Z</time>
      </trkpt>
      <trkpt lat="46.527990018948913" lon="8.640339961275458">
        <ele>1606.996948</ele>
        <time>2011-01-15T08:11:59Z</time>
      </trkpt>
      <trkpt lat="46.528226975351572" lon="8.639936959370971">
        <ele>1609.0086670000001</ele>
        <time>2011-01-15T08:12:31Z</time>
      </trkpt>
      <trkpt lat="46.528429985046387" lon="8.639657003805041">
        <ele>1605.991211</ele>
        <time>2011-01-15T08:13:05Z</time>
      </trkpt>
      <trkpt lat="46.528495028614998" lon="8.639575028792024">
        <ele>1604.9854740000001</ele>
        <time>2011-01-15T08:14:16Z</time>
      </trkpt>
      <trkpt lat="46.528642969205976" lon="8.639457011595368">
        <ele>1604.9854740000001</ele>
        <time>2011-01-15T08:14:50Z</time>
      </trkpt>
      <trkpt lat="46.528923008590937" lon="8.639273028820753">
        <ele>1609.0086670000001</ele>
        <time>2011-01-15T08:15:25Z</time>
      </trkpt>
      <trkpt lat="46.529012024402618" lon="8.63928803242743">
        <ele>1611.99585</ele>
        <time>2011-01-15T08:15:59Z</time>
      </trkpt>
      <trkpt lat="46.529144961386919" lon="8.639366989955306">
        <ele>1613.001587</ele>
        <time>2011-01-15T08:16:31Z</time>
      </trkpt>
      <trkpt lat="46.5292530041188" lon="8.639518031850457">
        <ele>1615.988525</ele>
        <time>2011-01-15T08:17:05Z</time>
      </trkpt>
      <trkpt lat="46.529334979131818" lon="8.639660021290183">
        <ele>1614.0073239999999</ele>
        <time>2011-01-15T08:17:38Z</time>
      </trkpt>
      <trkpt lat="46.529572019353509" lon="8.639909969642758">
        <ele>1619.006226</ele>
        <time>2011-01-15T08:18:10Z</time>
      </trkpt>
      <trkpt lat="46.529645025730133" lon="8.640156984329224">
        <ele>1625.9860839999999</ele>
        <time>2011-01-15T08:18:44Z</time>
      </trkpt>
      <trkpt lat="46.529697999358177" lon="8.640435012057424">
        <ele>1627.997803</ele>
        <time>2011-01-15T08:19:16Z</time>
      </trkpt>
      <trkpt lat="46.529764970764518" lon="8.640659982338548">
        <ele>1631.990601</ele>
        <time>2011-01-15T08:19:50Z</time>
      </trkpt>
      <trkpt lat="46.529782991856337" lon="8.640768025070429">
        <ele>1632.9964600000001</ele>
        <time>2011-01-15T08:20:37Z</time>
      </trkpt>
      <trkpt lat="46.529926992952824" lon="8.641112018376589">
        <ele>1641.0126949999999</ele>
        <time>2011-01-15T08:21:11Z</time>
      </trkpt>
      <trkpt lat="46.530117010697722" lon="8.641237998381257">
        <ele>1648.9985349999999</ele>
        <time>2011-01-15T08:21:43Z</time>
      </trkpt>
      <trkpt lat="46.530208038166165" lon="8.641336988657713">
        <ele>1653.997192</ele>
        <time>2011-01-15T08:22:17Z</time>
      </trkpt>
      <trkpt lat="46.530282972380519" lon="8.641440002247691">
        <ele>1653.997192</ele>
        <time>2011-01-15T08:22:49Z</time>
      </trkpt>
      <trkpt lat="46.530311973765492" lon="8.641534969210625">
        <ele>1655.0029300000001</ele>
        <time>2011-01-15T08:23:46Z</time>
      </trkpt>
      <trkpt lat="46.530381962656975" lon="8.641803022474051">
        <ele>1661.007568</ele>
        <time>2011-01-15T08:24:20Z</time>
      </trkpt>
      <trkpt lat="46.530432002618909" lon="8.642147015780211">
        <ele>1666.0063479999999</ele>
        <time>2011-01-15T08:24:52Z</time>
      </trkpt>
      <trkpt lat="46.530518000945449" lon="8.642544988542795">
        <ele>1673.9920649999999</ele>
        <time>2011-01-15T08:25:26Z</time>
      </trkpt>
      <trkpt lat="46.530633000656962" lon="8.642901973798871">
        <ele>1673.9920649999999</ele>
        <time>2011-01-15T08:25:58Z</time>
      </trkpt>
      <trkpt lat="46.530784964561462" lon="8.643267005681992">
        <ele>1678.990845</ele>
        <time>2011-01-15T08:26:32Z</time>
      </trkpt>
      <trkpt lat="46.53092997148633" lon="8.643618039786816">
        <ele>1682.0083010000001</ele>
        <time>2011-01-15T08:27:05Z</time>
      </trkpt>
      <trkpt lat="46.531110014766455" lon="8.644072003662586">
        <ele>1681.002563</ele>
        <time>2011-01-15T08:27:37Z</time>
      </trkpt>
      <trkpt lat="46.531332973390818" lon="8.644456984475255">
        <ele>1687.0069579999999</ele>
        <time>2011-01-15T08:28:11Z</time>
      </trkpt>
      <trkpt lat="46.531587028875947" lon="8.644812041893601">
        <ele>1688.988159</ele>
        <time>2011-01-15T08:28:43Z</time>
      </trkpt>
      <trkpt lat="46.531772017478943" lon="8.645270029082894">
        <ele>1689.9941409999999</ele>
        <time>2011-01-15T08:29:17Z</time>
      </trkpt>
      <trkpt lat="46.531849969178438" lon="8.645764980465174">
        <ele>1694.992798</ele>
        <time>2011-01-15T08:29:49Z</time>
      </trkpt>
      <trkpt lat="46.531870001927018" lon="8.646250041201711">
        <ele>1694.992798</ele>
        <time>2011-01-15T08:30:23Z</time>
      </trkpt>
      <trkpt lat="46.531867990270257" lon="8.646517004817724">
        <ele>1695.9985349999999</ele>
        <time>2011-01-15T08:30:55Z</time>
      </trkpt>
      <trkpt lat="46.531933033838868" lon="8.64676795899868">
        <ele>1694.992798</ele>
        <time>2011-01-15T08:31:29Z</time>
      </trkpt>
      <trkpt lat="46.532190022990108" lon="8.647144977003336">
        <ele>1695.9985349999999</ele>
        <time>2011-01-15T08:32:02Z</time>
      </trkpt>
      <trkpt lat="46.532350033521652" lon="8.647651998326182">
        <ele>1699.9914550000001</ele>
        <time>2011-01-15T08:32:34Z</time>
      </trkpt>
      <trkpt lat="46.532639963552356" lon="8.647958021610975">
        <ele>1700.997437</ele>
        <time>2011-01-15T08:33:08Z</time>
      </trkpt>
      <trkpt lat="46.532816989347339" lon="8.648279970511794">
        <ele>1704.9902340000001</ele>
        <time>2011-01-15T08:33:37Z</time>
      </trkpt>
      <trkpt lat="46.532901981845498" lon="8.648392958566546">
        <ele>1708.0078129999999</ele>
        <time>2011-01-15T08:34:14Z</time>
      </trkpt>
      <trkpt lat="46.532987980172038" lon="8.648373009636998">
        <ele>1707.001831</ele>
        <time>2011-01-15T08:35:08Z</time>
      </trkpt>
      <trkpt lat="46.533364998176694" lon="8.648354988545179">
        <ele>1708.0078129999999</ele>
        <time>2011-01-15T08:35:43Z</time>
      </trkpt>
      <trkpt lat="46.53357001952827" lon="8.648348031565547">
        <ele>1708.0078129999999</ele>
        <time>2011-01-15T08:36:17Z</time>
      </trkpt>
      <trkpt lat="46.533842012286186" lon="8.648405028507114">
        <ele>1715.99353</ele>
        <time>2011-01-15T08:36:49Z</time>
      </trkpt>
      <trkpt lat="46.534124985337257" lon="8.648497983813286">
        <ele>1719.010986</ele>
        <time>2011-01-15T08:37:23Z</time>
      </trkpt>
      <trkpt lat="46.534307040274143" lon="8.648348031565547">
        <ele>1724.985107</ele>
        <time>2011-01-15T08:37:55Z</time>
      </trkpt>
      <trkpt lat="46.534392032772303" lon="8.64829296246171">
        <ele>1724.985107</ele>
        <time>2011-01-15T08:38:29Z</time>
      </trkpt>
      <trkpt lat="46.53445003554225" lon="8.648352976888418">
        <ele>1724.985107</ele>
        <time>2011-01-15T08:39:26Z</time>
      </trkpt>
      <trkpt lat="46.534478031098843" lon="8.648451967164874">
        <ele>1724.985107</ele>
        <time>2011-01-15T08:42:01Z</time>
      </trkpt>
      <trkpt lat="46.534445006400347" lon="8.648354988545179">
        <ele>1728.002563</ele>
        <time>2011-01-15T08:42:52Z</time>
      </trkpt>
      <trkpt lat="46.53438800945878" lon="8.64842195995152">
        <ele>1728.002563</ele>
        <time>2011-01-15T08:47:05Z</time>
      </trkpt>
      <trkpt lat="46.534122973680496" lon="8.648767964914441">
        <ele>1726.9968260000001</ele>
        <time>2011-01-15T08:47:37Z</time>
      </trkpt>
      <trkpt lat="46.533794989809394" lon="8.648833008483052">
        <ele>1731.9954829999999</ele>
        <time>2011-01-15T08:48:11Z</time>
      </trkpt>
      <trkpt lat="46.533555015921593" lon="8.649001987650991">
        <ele>1738.0001219999999</ele>
        <time>2011-01-15T08:48:43Z</time>
      </trkpt>
      <trkpt lat="46.533406991511583" lon="8.649316979572177">
        <ele>1740.987061</ele>
        <time>2011-01-15T08:49:17Z</time>
      </trkpt>
      <trkpt lat="46.533222002908587" lon="8.649692991748452">
        <ele>1745.0104980000001</ele>
        <time>2011-01-15T08:49:49Z</time>
      </trkpt>
      <trkpt lat="46.533062998205423" lon="8.650024998933077">
        <ele>1750.009155</ele>
        <time>2011-01-15T08:50:23Z</time>
      </trkpt>
      <trkpt lat="46.532912962138653" lon="8.65046001970768">
        <ele>1750.009155</ele>
        <time>2011-01-15T08:50:58Z</time>
      </trkpt>
      <trkpt lat="46.532752029597759" lon="8.650807030498982">
        <ele>1752.996216</ele>
        <time>2011-01-15T08:51:32Z</time>
      </trkpt>
      <trkpt lat="46.532696960493922" lon="8.65114800632">
        <ele>1757.994995</ele>
        <time>2011-01-15T08:52:04Z</time>
      </trkpt>
      <trkpt lat="46.532742977142334" lon="8.651567017659545">
        <ele>1762.9936520000001</ele>
        <time>2011-01-15T08:52:38Z</time>
      </trkpt>
      <trkpt lat="46.532757980749011" lon="8.652002038434148">
        <ele>1765.005371</ele>
        <time>2011-01-15T08:53:11Z</time>
      </trkpt>
      <trkpt lat="46.532741971313953" lon="8.652355000376701">
        <ele>1771.009888</ele>
        <time>2011-01-15T08:53:43Z</time>
      </trkpt>
      <trkpt lat="46.532699977979064" lon="8.652488021180034">
        <ele>1773.9970699999999</ele>
        <time>2011-01-15T08:55:04Z</time>
      </trkpt>
      <trkpt lat="46.532597970217466" lon="8.652962017804384">
        <ele>1775.002808</ele>
        <time>2011-01-15T08:55:38Z</time>
      </trkpt>
      <trkpt lat="46.532575003802776" lon="8.653335012495518">
        <ele>1781.0074460000001</ele>
        <time>2011-01-15T08:56:10Z</time>
      </trkpt>
      <trkpt lat="46.532563017681241" lon="8.65346702747047">
        <ele>1785.0001219999999</ele>
        <time>2011-01-15T08:57:08Z</time>
      </trkpt>
      <trkpt lat="46.532427985221148" lon="8.653822001069784">
        <ele>1789.9990230000001</ele>
        <time>2011-01-15T08:57:41Z</time>
      </trkpt>
      <trkpt lat="46.532258000224829" lon="8.653910011053085">
        <ele>1798.015259</ele>
        <time>2011-01-15T08:58:13Z</time>
      </trkpt>
      <trkpt lat="46.532077034935355" lon="8.653650004416704">
        <ele>1807.006836</ele>
        <time>2011-01-15T08:58:47Z</time>
      </trkpt>
      <trkpt lat="46.531933033838868" lon="8.653546990826726">
        <ele>1807.006836</ele>
        <time>2011-01-15T08:59:19Z</time>
      </trkpt>
      <trkpt lat="46.53183002024889" lon="8.653750000521541">
        <ele>1808.012573</ele>
        <time>2011-01-15T08:59:53Z</time>
      </trkpt>
      <trkpt lat="46.531811999157071" lon="8.654036996886134">
        <ele>1810.9997559999999</ele>
        <time>2011-01-15T09:00:25Z</time>
      </trkpt>
      <trkpt lat="46.531721977517009" lon="8.654327010735869">
        <ele>1813.011475</ele>
        <time>2011-01-15T09:00:59Z</time>
      </trkpt>
      <trkpt lat="46.531782997772098" lon="8.654622975736857">
        <ele>1817.00415</ele>
        <time>2011-01-15T09:01:31Z</time>
      </trkpt>
      <trkpt lat="46.531888023018837" lon="8.654935033991933">
        <ele>1820.9970699999999</ele>
        <time>2011-01-15T09:02:05Z</time>
      </trkpt>
      <trkpt lat="46.531800013035536" lon="8.654941990971565">
        <ele>1823.008789</ele>
        <time>2011-01-15T09:02:43Z</time>
      </trkpt>
      <trkpt lat="46.531527014449239" lon="8.654920030385256">
        <ele>1825.9957280000001</ele>
        <time>2011-01-15T09:03:17Z</time>
      </trkpt>
      <trkpt lat="46.531432969495654" lon="8.655051961541176">
        <ele>1829.013428</ele>
        <time>2011-01-15T09:03:49Z</time>
      </trkpt>
      <trkpt lat="46.531651988625526" lon="8.655310040339828">
        <ele>1832.000366</ele>
        <time>2011-01-15T09:04:23Z</time>
      </trkpt>
      <trkpt lat="46.531734969466925" lon="8.655352033674717">
        <ele>1834.987427</ele>
        <time>2011-01-15T09:05:05Z</time>
      </trkpt>
      <trkpt lat="46.531991958618164" lon="8.655407018959522">
        <ele>1844.9848629999999</ele>
        <time>2011-01-15T09:05:37Z</time>
      </trkpt>
      <trkpt lat="46.532311979681253" lon="8.655497040599585">
        <ele>1850.98938</ele>
        <time>2011-01-15T09:06:14Z</time>
      </trkpt>
      <trkpt lat="46.532522030174732" lon="8.655402995646">
        <ele>1853.0010990000001</ele>
        <time>2011-01-15T09:06:46Z</time>
      </trkpt>
      <trkpt lat="46.532595036551356" lon="8.65538296289742">
        <ele>1853.0010990000001</ele>
        <time>2011-01-15T09:07:32Z</time>
      </trkpt>
      <trkpt lat="46.532762004062533" lon="8.655669959262013">
        <ele>1850.98938</ele>
        <time>2011-01-15T09:08:04Z</time>
      </trkpt>
      <trkpt lat="46.533031985163689" lon="8.655722010880709">
        <ele>1855.012817</ele>
        <time>2011-01-15T09:08:38Z</time>
      </trkpt>
      <trkpt lat="46.533212028443813" lon="8.655712958425283">
        <ele>1860.011475</ele>
        <time>2011-01-15T09:09:10Z</time>
      </trkpt>
      <trkpt lat="46.53327296487987" lon="8.655657973140478">
        <ele>1862.9986570000001</ele>
        <time>2011-01-15T09:11:52Z</time>
      </trkpt>
      <trkpt lat="46.533340020105243" lon="8.655586978420615">
        <ele>1862.9986570000001</ele>
        <time>2011-01-15T09:12:26Z</time>
      </trkpt>
      <trkpt lat="46.533543029800057" lon="8.655501985922456">
        <ele>1864.0043949999999</ele>
        <time>2011-01-15T09:12:59Z</time>
      </trkpt>
      <trkpt lat="46.533692982047796" lon="8.655677000060678">
        <ele>1871.9902340000001</ele>
        <time>2011-01-15T09:13:31Z</time>
      </trkpt>
      <trkpt lat="46.533645037561655" lon="8.655977994203568">
        <ele>1875.0076899999999</ele>
        <time>2011-01-15T09:14:05Z</time>
      </trkpt>
      <trkpt lat="46.533837988972664" lon="8.65628301165998">
        <ele>1880.0063479999999</ele>
        <time>2011-01-15T09:14:37Z</time>
      </trkpt>
      <trkpt lat="46.534005040302873" lon="8.656316958367825">
        <ele>1881.012207</ele>
        <time>2011-01-15T09:15:11Z</time>
      </trkpt>
      <trkpt lat="46.53419204056263" lon="8.656273037195206">
        <ele>1883.999268</ele>
        <time>2011-01-15T09:15:43Z</time>
      </trkpt>
      <trkpt lat="46.534320032224059" lon="8.656234983354807">
        <ele>1887.9921879999999</ele>
        <time>2011-01-15T09:16:17Z</time>
      </trkpt>
      <trkpt lat="46.534566963091493" lon="8.656089976429939">
        <ele>1893.9967039999999</ele>
        <time>2011-01-15T09:16:49Z</time>
      </trkpt>
      <trkpt lat="46.534638041630387" lon="8.656127024441958">
        <ele>1892.990967</ele>
        <time>2011-01-15T09:17:31Z</time>
      </trkpt>
      <trkpt lat="46.534709958359599" lon="8.656123001128435">
        <ele>1892.990967</ele>
        <time>2011-01-15T09:18:52Z</time>
      </trkpt>
      <trkpt lat="46.534782964736223" lon="8.656168011948466">
        <ele>1892.990967</ele>
        <time>2011-01-15T09:26:11Z</time>
      </trkpt>
      <trkpt lat="46.534938029944897" lon="8.65645500831306">
        <ele>1897.0141599999999</ele>
        <time>2011-01-15T09:26:43Z</time>
      </trkpt>
      <trkpt lat="46.534852031618357" lon="8.656697999686003">
        <ele>1902.9882809999999</ele>
        <time>2011-01-15T09:27:17Z</time>
      </trkpt>
      <trkpt lat="46.534718004986644" lon="8.656848035752773">
        <ele>1908.9929199999999</ele>
        <time>2011-01-15T09:27:50Z</time>
      </trkpt>
      <trkpt lat="46.53470803052187" lon="8.656834959983826">
        <ele>1916.0032960000001</ele>
        <time>2011-01-15T09:28:26Z</time>
      </trkpt>
      <trkpt lat="46.534662013873458" lon="8.656915007159114">
        <ele>1914.997437</ele>
        <time>2011-01-15T09:29:11Z</time>
      </trkpt>
      <trkpt lat="46.534508038312197" lon="8.657297976315022">
        <ele>1917.009033</ele>
        <time>2011-01-15T09:29:43Z</time>
      </trkpt>
      <trkpt lat="46.534682968631387" lon="8.657322032377124">
        <ele>1921.001953</ele>
        <time>2011-01-15T09:30:17Z</time>
      </trkpt>
      <trkpt lat="46.534956973046064" lon="8.657371988520026">
        <ele>1924.9948730000001</ele>
        <time>2011-01-15T09:30:49Z</time>
      </trkpt>
      <trkpt lat="46.535120001062751" lon="8.657556977123022">
        <ele>1928.0124510000001</ele>
        <time>2011-01-15T09:31:23Z</time>
      </trkpt>
      <trkpt lat="46.535020004957914" lon="8.657769961282611">
        <ele>1932.005249</ele>
        <time>2011-01-15T09:31:55Z</time>
      </trkpt>
      <trkpt lat="46.535017993301153" lon="8.657887978479266">
        <ele>1934.9923100000001</ele>
        <time>2011-01-15T09:32:44Z</time>
      </trkpt>
      <trkpt lat="46.535131987184286" lon="8.658210011199117">
        <ele>1940.996948</ele>
        <time>2011-01-15T09:33:16Z</time>
      </trkpt>
      <trkpt lat="46.535198036581278" lon="8.65841000340879">
        <ele>1944.9898679999999</ele>
        <time>2011-01-15T09:33:53Z</time>
      </trkpt>
      <trkpt lat="46.535199964419007" lon="8.658558027818799">
        <ele>1948.0073239999999</ele>
        <time>2011-01-15T09:34:25Z</time>
      </trkpt>
      <trkpt lat="46.535125030204654" lon="8.658802025020123">
        <ele>1950.994263</ele>
        <time>2011-01-15T09:34:59Z</time>
      </trkpt>
      <trkpt lat="46.5350950229913" lon="8.65890696644783">
        <ele>1950.994263</ele>
        <time>2011-01-15T09:35:34Z</time>
      </trkpt>
      <trkpt lat="46.534986980259418" lon="8.659332012757659">
        <ele>1954.011841</ele>
        <time>2011-01-15T09:36:08Z</time>
      </trkpt>
      <trkpt lat="46.534922020509839" lon="8.659727973863483">
        <ele>1958.004639</ele>
        <time>2011-01-15T09:36:40Z</time>
      </trkpt>
      <trkpt lat="46.534957978874445" lon="8.659972976893187">
        <ele>1959.9858400000001</ele>
        <time>2011-01-15T09:37:14Z</time>
      </trkpt>
      <trkpt lat="46.534968037158251" lon="8.660122007131577">
        <ele>1966.9963379999999</ele>
        <time>2011-01-15T09:37:46Z</time>
      </trkpt>
      <trkpt lat="46.534959990531206" lon="8.660222003236413">
        <ele>1966.9963379999999</ele>
        <time>2011-01-15T09:38:25Z</time>
      </trkpt>
      <trkpt lat="46.534905005246401" lon="8.660483015701175">
        <ele>1970.9892580000001</ele>
        <time>2011-01-15T09:38:59Z</time>
      </trkpt>
      <trkpt lat="46.534769972786307" lon="8.660588040947914">
        <ele>1975.9879149999999</ele>
        <time>2011-01-15T09:39:32Z</time>
      </trkpt>
      <trkpt lat="46.534638041630387" lon="8.660636991262436">
        <ele>1979.005371</ele>
        <time>2011-01-15T09:40:04Z</time>
      </trkpt>
      <trkpt lat="46.534572998061776" lon="8.660612013190985">
        <ele>1987.996948</ele>
        <time>2011-01-15T09:40:39Z</time>
      </trkpt>
      <trkpt lat="46.534417010843754" lon="8.660353012382984">
        <ele>1991.9898679999999</ele>
        <time>2011-01-15T09:41:13Z</time>
      </trkpt>
      <trkpt lat="46.534354984760284" lon="8.660214962437749">
        <ele>1992.99585</ele>
        <time>2011-01-15T09:41:45Z</time>
      </trkpt>
      <trkpt lat="46.534212995320559" lon="8.660138016566634">
        <ele>1995.0073239999999</ele>
        <time>2011-01-15T09:42:19Z</time>
      </trkpt>
      <trkpt lat="46.534094978123903" lon="8.660070039331913">
        <ele>1997.9945070000001</ele>
        <time>2011-01-15T09:42:51Z</time>
      </trkpt>
      <trkpt lat="46.534028006717563" lon="8.660027962177992">
        <ele>2001.0119629999999</ele>
        <time>2011-01-15T09:50:03Z</time>
      </trkpt>
      <trkpt lat="46.533866990357637" lon="8.659982029348612">
        <ele>2007.991943</ele>
        <time>2011-01-15T09:50:37Z</time>
      </trkpt>
      <trkpt lat="46.533666998147964" lon="8.66008697077632">
        <ele>2011.984741</ele>
        <time>2011-01-15T09:51:09Z</time>
      </trkpt>
      <trkpt lat="46.533577982336283" lon="8.660076996311545">
        <ele>2012.990601</ele>
        <time>2011-01-15T09:51:43Z</time>
      </trkpt>
      <trkpt lat="46.533516962081194" lon="8.660152014344931">
        <ele>2016.0081789999999</ele>
        <time>2011-01-15T09:52:45Z</time>
      </trkpt>
      <trkpt lat="46.533402968198061" lon="8.66034303791821">
        <ele>2020.0009769999999</ele>
        <time>2011-01-15T09:53:19Z</time>
      </trkpt>
      <trkpt lat="46.533276988193393" lon="8.660416966304183">
        <ele>2022.0126949999999</ele>
        <time>2011-01-15T09:53:51Z</time>
      </trkpt>
      <trkpt lat="46.533146984875202" lon="8.660543030127883">
        <ele>2024.9998780000001</ele>
        <time>2011-01-15T09:54:25Z</time>
      </trkpt>
      <trkpt lat="46.533086970448494" lon="8.660673033446074">
        <ele>2026.005615</ele>
        <time>2011-01-15T09:54:58Z</time>
      </trkpt>
      <trkpt lat="46.53309996239841" lon="8.660806976258755">
        <ele>2027.0113530000001</ele>
        <time>2011-01-15T09:55:57Z</time>
      </trkpt>
      <trkpt lat="46.533114966005087" lon="8.660979978740215">
        <ele>2031.0042719999999</ele>
        <time>2011-01-15T09:56:31Z</time>
      </trkpt>
      <trkpt lat="46.53314296156168" lon="8.661164967343211">
        <ele>2034.997192</ele>
        <time>2011-01-15T09:57:03Z</time>
      </trkpt>
      <trkpt lat="46.533144973218441" lon="8.661278039216995">
        <ele>2038.990112</ele>
        <time>2011-01-15T09:57:40Z</time>
      </trkpt>
      <trkpt lat="46.53316299431026" lon="8.661379963159561">
        <ele>2039.99585</ele>
        <time>2011-01-15T09:58:51Z</time>
      </trkpt>
      <trkpt lat="46.533125024288893" lon="8.661588001996279">
        <ele>2048.0122070000002</ele>
        <time>2011-01-15T09:59:25Z</time>
      </trkpt>
      <trkpt lat="46.533114966005087" lon="8.661687998101115">
        <ele>2048.9875489999999</ele>
        <time>2011-01-15T09:59:57Z</time>
      </trkpt>
      <trkpt lat="46.533170035108924" lon="8.661877010017633">
        <ele>2054.9921880000002</ele>
        <time>2011-01-15T10:00:31Z</time>
      </trkpt>
      <trkpt lat="46.533189984038472" lon="8.661987986415625">
        <ele>2057.0039059999999</ele>
        <time>2011-01-15T10:01:10Z</time>
      </trkpt>
      <trkpt lat="46.533198030665517" lon="8.662114972248673">
        <ele>2058.985107</ele>
        <time>2011-01-15T10:04:15Z</time>
      </trkpt>
      <trkpt lat="46.533157965168357" lon="8.66238696500659">
        <ele>2065.9953609999998</ele>
        <time>2011-01-15T10:04:49Z</time>
      </trkpt>
      <trkpt lat="46.533180009573698" lon="8.662572037428618">
        <ele>2067.001221</ele>
        <time>2011-01-15T10:05:21Z</time>
      </trkpt>
      <trkpt lat="46.533198030665517" lon="8.662668010219932">
        <ele>2069.0129390000002</ele>
        <time>2011-01-15T10:06:00Z</time>
      </trkpt>
      <trkpt lat="46.533201970160007" lon="8.662825003266335">
        <ele>2074.0117190000001</ele>
        <time>2011-01-15T10:06:34Z</time>
      </trkpt>
      <trkpt lat="46.533217979595065" lon="8.662924999371171">
        <ele>2078.0043949999999</ele>
        <time>2011-01-15T10:07:16Z</time>
      </trkpt>
      <trkpt lat="46.533213034272194" lon="8.663070006296039">
        <ele>2084.0090329999998</ele>
        <time>2011-01-15T10:07:48Z</time>
      </trkpt>
      <trkpt lat="46.533232983201742" lon="8.663243008777499">
        <ele>2088.001953</ele>
        <time>2011-01-15T10:08:22Z</time>
      </trkpt>
      <trkpt lat="46.533232983201742" lon="8.663369994610548">
        <ele>2090.9890140000002</ele>
        <time>2011-01-15T10:08:55Z</time>
      </trkpt>
      <trkpt lat="46.533247986808419" lon="8.6634829826653">
        <ele>2094.0065920000002</ele>
        <time>2011-01-15T10:09:46Z</time>
      </trkpt>
      <trkpt lat="46.533286962658167" lon="8.663602005690336">
        <ele>2095.9877929999998</ele>
        <time>2011-01-15T10:10:20Z</time>
      </trkpt>
      <trkpt lat="46.533323004841805" lon="8.663702001795173">
        <ele>2099.0051269999999</ele>
        <time>2011-01-15T10:11:50Z</time>
      </trkpt>
      <trkpt lat="46.533300038427114" lon="8.663854971528053">
        <ele>2105.0097660000001</ele>
        <time>2011-01-15T10:12:23Z</time>
      </trkpt>
      <trkpt lat="46.533286962658167" lon="8.66395303979516">
        <ele>2110.0085450000001</ele>
        <time>2011-01-15T10:12:55Z</time>
      </trkpt>
      <trkpt lat="46.533282017335296" lon="8.664092011749744">
        <ele>2114.0014649999998</ele>
        <time>2011-01-15T10:13:29Z</time>
      </trkpt>
      <trkpt lat="46.533252010121942" lon="8.664201982319355">
        <ele>2117.9941410000001</ele>
        <time>2011-01-15T10:14:13Z</time>
      </trkpt>
      <trkpt lat="46.533214962109923" lon="8.664292003959417">
        <ele>2121.0117190000001</ele>
        <time>2011-01-15T10:14:52Z</time>
      </trkpt>
      <trkpt lat="46.53316299431026" lon="8.66438303142786">
        <ele>2125.0046390000002</ele>
        <time>2011-01-15T10:15:29Z</time>
      </trkpt>
      <trkpt lat="46.533113038167357" lon="8.664462994784117">
        <ele>2128.9975589999999</ele>
        <time>2011-01-15T10:16:20Z</time>
      </trkpt>
      <trkpt lat="46.533027961850166" lon="8.664585035294294">
        <ele>2133.9960940000001</ele>
        <time>2011-01-15T10:16:53Z</time>
      </trkpt>
      <trkpt lat="46.532989991828799" lon="8.664701962843537">
        <ele>2137.0139159999999</ele>
        <time>2011-01-15T10:17:22Z</time>
      </trkpt>
      <trkpt lat="46.532959984615445" lon="8.664816962555051">
        <ele>2138.9951169999999</ele>
        <time>2011-01-15T10:18:31Z</time>
      </trkpt>
      <trkpt lat="46.53294799849391" lon="8.665009997785091">
        <ele>2143.9936520000001</ele>
        <time>2011-01-15T10:19:05Z</time>
      </trkpt>
      <trkpt lat="46.532940035685897" lon="8.665127009153366">
        <ele>2144.9995119999999</ele>
        <time>2011-01-15T10:19:44Z</time>
      </trkpt>
      <trkpt lat="46.532929977402091" lon="8.665272016078234">
        <ele>2147.9865719999998</ele>
        <time>2011-01-15T10:20:16Z</time>
      </trkpt>
      <trkpt lat="46.532922014594078" lon="8.665421968325973">
        <ele>2149.9982909999999</ele>
        <time>2011-01-15T10:20:53Z</time>
      </trkpt>
      <trkpt lat="46.532916985452175" lon="8.665679963305593">
        <ele>2154.9970699999999</ele>
        <time>2011-01-15T10:21:25Z</time>
      </trkpt>
      <trkpt lat="46.532929977402091" lon="8.665799992159009">
        <ele>2154.9970699999999</ele>
        <time>2011-01-15T10:22:02Z</time>
      </trkpt>
      <trkpt lat="46.53292796574533" lon="8.66590803489089">
        <ele>2156.0026859999998</ele>
        <time>2011-01-15T10:23:13Z</time>
      </trkpt>
      <trkpt lat="46.532937018200755" lon="8.666069973260164">
        <ele>2158.014404</ele>
        <time>2011-01-15T10:23:47Z</time>
      </trkpt>
      <trkpt lat="46.532935006543994" lon="8.666205005720258">
        <ele>2162.0073240000002</ele>
        <time>2011-01-15T10:24:29Z</time>
      </trkpt>
      <trkpt lat="46.532940035685897" lon="8.666310030966997">
        <ele>2168.0119629999999</ele>
        <time>2011-01-15T10:25:01Z</time>
      </trkpt>
      <trkpt lat="46.532959984615445" lon="8.666412038728595">
        <ele>2173.0104980000001</ele>
        <time>2011-01-15T10:25:47Z</time>
      </trkpt>
      <trkpt lat="46.53301203623414" lon="8.666537012904882">
        <ele>2175.9978030000002</ele>
        <time>2011-01-15T10:26:20Z</time>
      </trkpt>
      <trkpt lat="46.533071966841817" lon="8.666613036766648">
        <ele>2177.0034179999998</ele>
        <time>2011-01-15T10:26:52Z</time>
      </trkpt>
      <trkpt lat="46.533091999590397" lon="8.666713032871485">
        <ele>2179.9907229999999</ele>
        <time>2011-01-15T10:27:31Z</time>
      </trkpt>
      <trkpt lat="46.533083030954003" lon="8.666846975684166">
        <ele>2184.9892580000001</ele>
        <time>2011-01-15T10:28:08Z</time>
      </trkpt>
      <trkpt lat="46.533167017623782" lon="8.666989970952272">
        <ele>2185.9951169999999</ele>
        <time>2011-01-15T10:28:40Z</time>
      </trkpt>
      <trkpt lat="46.533201970160007" lon="8.667107988148928">
        <ele>2188.006836</ele>
        <time>2011-01-15T10:29:14Z</time>
      </trkpt>
      <trkpt lat="46.533243041485548" lon="8.667230028659105">
        <ele>2194.0114749999998</ele>
        <time>2011-01-15T10:29:50Z</time>
      </trkpt>
      <trkpt lat="46.533237006515265" lon="8.667375035583973">
        <ele>2196.9982909999999</ele>
        <time>2011-01-15T10:30:25Z</time>
      </trkpt>
      <trkpt lat="46.533238012343645" lon="8.667477965354919">
        <ele>2199.9853520000001</ele>
        <time>2011-01-15T10:30:59Z</time>
      </trkpt>
      <trkpt lat="46.533255027607083" lon="8.667579973116517">
        <ele>2203.0029300000001</ele>
        <time>2011-01-15T10:31:42Z</time>
      </trkpt>
      <trkpt lat="46.533232983201742" lon="8.667682986706495">
        <ele>2210.9887699999999</ele>
        <time>2011-01-15T10:32:20Z</time>
      </trkpt>
      <trkpt lat="46.533185038715601" lon="8.66782296448946">
        <ele>2211.9946289999998</ele>
        <time>2011-01-15T10:32:55Z</time>
      </trkpt>
      <trkpt lat="46.533168023452163" lon="8.667988004162908">
        <ele>2215.0122070000002</ele>
        <time>2011-01-15T10:33:29Z</time>
      </trkpt>
      <trkpt lat="46.533147990703583" lon="8.668154971674085">
        <ele>2220.0107419999999</ele>
        <time>2011-01-15T10:34:01Z</time>
      </trkpt>
    </trkseg>
  </trk>

</gpx>